Time;durP1;ratioP1;P1;durP2;ratioP2;P2;SDS_P1;SDS_P2;PMS_P1;PMS_P2;Temp;Humidity;BMP_temperature;BMP_pressure;BME280_temperature;BME280_humidity;BME280_pressure;Samples;Min_cycle;Max_cycle;Signal;HPM_P1;HPM_P2
2021/01/21 00:02:18;;;;;;;20.65;11.12;;;;;;;3.23;65.61;101168.66;1720225;82;21139;-61
2021/01/21 00:04:45;;;;;;;19.92;12.15;;;;;;;3.23;65.61;101171.66;1718493;82;21147;-62
2021/01/21 00:07:13;;;;;;;19.82;12.05;;;;;;;3.23;65.57;101167.75;1734587;82;21135;-65
2021/01/21 00:09:41;;;;;;;20.77;11.68;;;;;;;3.28;65.41;101166.17;1748058;82;21140;-62
2021/01/21 00:12:09;;;;;;;19.27;10.25;;;;;;;3.31;65.40;101169.31;1745675;81;21266;-62
2021/01/21 00:14:37;;;;;;;20.17;10.70;;;;;;;3.33;65.40;101158.50;1748056;82;21309;-62
2021/01/21 00:17:05;;;;;;;19.17;11.08;;;;;;;3.33;65.34;101159.80;1739017;81;21083;-65
2021/01/21 00:19:33;;;;;;;20.45;10.48;;;;;;;3.29;65.39;101148.43;1751527;81;21220;-61
2021/01/21 00:22:01;;;;;;;23.85;11.97;;;;;;;3.29;65.45;101157.54;1731877;81;21115;-62
2021/01/21 00:24:28;;;;;;;18.90;11.10;;;;;;;3.34;65.31;101153.75;1743301;81;21158;-62
2021/01/21 00:26:56;;;;;;;20.37;11.22;;;;;;;3.33;65.33;101163.30;1760901;81;21472;-62
2021/01/21 00:29:23;;;;;;;21.42;11.20;;;;;;;3.33;65.25;101159.39;1759197;81;21139;-61
2021/01/21 00:31:50;;;;;;;18.55;10.58;;;;;;;3.33;65.25;101155.89;1761908;81;21150;-61
2021/01/21 00:34:19;;;;;;;20.52;11.30;;;;;;;3.29;65.34;101160.58;1743499;81;21214;-65
2021/01/21 00:36:46;;;;;;;21.30;11.00;;;;;;;3.25;65.46;101164.78;1750311;81;21178;-62
2021/01/21 00:39:14;;;;;;;21.05;11.38;;;;;;;3.25;65.49;101171.28;1761150;81;21131;-65
2021/01/21 00:41:41;;;;;;;20.92;11.38;;;;;;;3.22;65.64;101164.69;1758806;81;21142;-65
2021/01/21 00:44:08;;;;;;;21.05;11.60;;;;;;;3.22;65.68;101161.69;1761475;81;21147;-61
2021/01/21 00:46:37;;;;;;;21.65;11.73;;;;;;;3.21;65.75;101162.92;1761663;81;21134;-65
2021/01/21 00:49:05;;;;;;;20.85;11.00;;;;;;;3.23;65.72;101161.25;1761014;81;21159;-64
2021/01/21 00:51:33;;;;;;;22.58;12.03;;;;;;;3.20;65.72;101156.84;1743103;81;21514;-64
2021/01/21 00:54:01;;;;;;;20.80;11.53;;;;;;;3.20;65.79;101156.84;1760260;81;21082;-64
2021/01/21 00:56:28;;;;;;;21.00;10.88;;;;;;;3.20;65.77;101152.95;1761318;81;21156;-62
2021/01/21 00:58:56;;;;;;;21.55;10.93;;;;;;;3.20;65.80;101146.44;1748208;81;21158;-62
2021/01/21 01:01:24;;;;;;;21.05;10.58;;;;;;;3.22;65.79;101156.48;1737780;81;21131;-62
2021/01/21 01:03:51;;;;;;;22.58;11.22;;;;;;;3.26;65.62;101156.14;1759465;81;21158;-65
2021/01/21 01:06:21;;;;;;;19.98;10.93;;;;;;;3.28;65.56;101155.77;1761135;81;21130;-61
2021/01/21 01:08:50;;;;;;;;;;;;;;;3.31;65.51;101154.56;1760944;81;21142;-65
2021/01/21 01:11:18;;;;;;;18.95;10.60;;;;;;;3.33;65.45;101155.49;1755598;81;20142;-64
2021/01/21 01:13:46;;;;;;;21.12;11.60;;;;;;;3.26;65.58;101156.14;1733274;81;21146;-61
2021/01/21 01:16:13;;;;;;;22.07;11.93;;;;;;;3.25;65.61;101162.18;1754818;81;21190;-65
2021/01/21 01:19:07;;;;;;;20.75;11.48;;;;;;;3.29;65.76;101153.63;1813793;77;22182;-60
2021/01/21 01:21:35;;;;;;;22.60;11.93;;;;;;;3.26;65.77;101162.64;1767793;80;21261;-63
2021/01/21 01:24:04;;;;;;;20.97;12.13;;;;;;;3.28;65.71;101159.67;1765826;80;21146;-63
2021/01/21 01:26:32;;;;;;;22.70;10.93;;;;;;;3.32;65.64;101157.62;1747446;81;21158;-60
2021/01/21 01:29:08;;;;;;;26.35;17.40;;;;;;;3.34;65.70;101160.27;1803484;77;28478;-63
2021/01/21 01:31:35;;;;;;;26.77;14.70;;;;;;;3.29;65.77;101160.14;1760956;81;21127;-63
2021/01/21 01:34:04;;;;;;;23.85;12.20;;;;;;;3.32;65.75;101161.53;1757043;81;21118;-60
2021/01/21 01:36:33;;;;;;;21.40;11.93;;;;;;;3.35;65.76;101156.83;1750823;81;21095;-65
2021/01/21 01:39:01;;;;;;;24.35;12.78;;;;;;;3.33;65.80;101154.59;1737810;81;21162;-64
2021/01/21 01:41:36;;;;;;;21.23;11.68;;;;;;;3.31;65.87;101146.76;1733929;81;21272;-63
2021/01/21 01:44:05;;;;;;;20.43;11.83;;;;;;;3.30;65.97;101148.89;1740513;81;21126;-63
2021/01/21 01:46:32;;;;;;;23.92;12.43;;;;;;;3.30;66.02;101142.83;1731950;83;21178;-66
2021/01/21 01:49:01;;;;;;;20.65;11.22;;;;;;;3.31;66.02;101146.76;1741306;81;21158;-61
2021/01/21 01:51:30;;;;;;;14.33;7.92;;;;;;;3.30;66.03;101147.59;1738324;81;21139;-61
2021/01/21 01:53:59;;;;;;;19.23;11.25;;;;;;;3.31;66.08;101148.49;1761119;81;21139;-62
2021/01/21 01:56:30;;;;;;;19.98;10.88;;;;;;;3.33;66.04;101148.09;1762104;81;21593;-61
2021/01/21 01:59:05;;;;;;;28.55;12.33;;;;;;;3.37;65.94;101148.25;1834618;77;20381;-63
2021/01/21 02:01:35;;;;;;;24.63;12.53;;;;;;;3.35;65.88;101146.41;1760842;81;21135;-62
2021/01/21 02:04:05;;;;;;;23.10;12.13;;;;;;;3.35;65.87;101152.52;1762466;80;21536;-62
2021/01/21 02:06:51;;;;;;;22.00;11.33;;;;;;;3.35;65.84;101151.22;1768391;80;21123;-62
2021/01/21 02:09:19;;;;;;;20.30;11.48;;;;;;;3.36;65.75;101153.39;1729257;81;21369;-62
2021/01/21 02:12:21;;;;;;;23.80;11.70;;;;;;;3.31;65.83;101149.80;1698169;83;21126;-62
2021/01/21 02:15:10;;;;;;;20.32;11.30;;;;;;;3.30;65.85;101148.89;1729191;83;21170;-61
2021/01/21 02:17:53;;;;;;;18.40;10.10;;;;;;;3.31;65.82;101145.89;1715172;83;21301;-61
2021/01/21 02:20:42;;;;;;;20.88;11.30;;;;;;;3.31;65.80;101149.80;1725948;83;21161;-62
2021/01/21 02:24:04;;;;;;;22.85;10.98;;;;;;;3.35;65.67;101146.41;1727635;83;21154;-64
2021/01/21 02:26:57;;;;;;;25.57;10.68;;;;;;;3.35;65.58;101142.52;1737740;82;21576;-62
2021/01/21 02:29:33;;;;;;;22.20;10.80;;;;;;;3.32;65.65;101146.32;1719262;81;21601;-66
2021/01/21 02:32:26;;;;;;;20.32;10.58;;;;;;;3.31;65.62;101150.66;1723915;83;21182;-66
2021/01/21 02:35:08;;;;;;;24.05;12.55;;;;;;;3.26;65.74;101149.23;1725013;81;21179;-63
2021/01/21 02:37:37;;;;;;;20.48;11.15;;;;;;;3.30;65.62;101150.20;1679207;85;21202;-67
2021/01/21 02:40:08;;;;;;;21.40;12.05;;;;;;;3.34;65.47;101145.95;1703378;83;21231;-66
2021/01/21 02:42:48;;;;;;;21.48;12.28;;;;;;;3.39;65.45;101144.38;1827432;77;22116;-60
2021/01/21 02:45:17;;;;;;;21.62;11.60;;;;;;;3.38;65.41;101151.71;1775777;80;21179;-62
2021/01/21 02:47:47;;;;;;;23.47;11.20;;;;;;;3.40;65.36;101157.84;1761737;81;21181;-62
2021/01/21 02:50:17;;;;;;;25.90;12.73;;;;;;;3.38;65.33;101158.22;1761873;80;21166;-61
2021/01/21 02:53:00;;;;;;;23.80;13.00;;;;;;;3.39;65.26;101164.79;1756037;81;21134;-62
2021/01/21 02:55:57;;;;;;;21.77;11.75;;;;;;;3.38;65.24;101159.52;1761816;80;21273;-64
2021/01/21 02:58:34;;;;;;;24.85;12.13;;;;;;;3.37;65.22;101169.06;1755481;81;21146;-65
2021/01/21 03:01:04;;;;;;;24.82;11.48;;;;;;;3.39;65.10;101165.19;1736997;81;21293;-62
2021/01/21 03:03:32;;;;;;;23.60;11.08;;;;;;;3.41;65.05;101162.22;1732791;81;21175;-64
2021/01/21 03:06:02;;;;;;;21.68;11.22;;;;;;;3.40;65.00;101153.95;1761885;81;21180;-62
2021/01/21 03:08:33;;;;;;;24.25;11.93;;;;;;;3.40;64.99;101150.94;1741615;81;21316;-65
2021/01/21 03:11:15;;;;;;;26.20;11.50;;;;;;;3.39;64.94;101158.28;1738141;81;21293;-64
2021/01/21 03:13:53;;;;;;;30.95;12.70;;;;;;;3.42;64.92;101152.27;1818854;77;22135;-62
2021/01/21 03:16:22;;;;;;;23.60;10.82;;;;;;;3.37;64.96;101155.16;1758550;81;21130;-63
2021/01/21 03:18:53;;;;;;;22.67;10.80;;;;;;;3.36;65.01;101158.19;1766670;80;21158;-64
2021/01/21 03:21:21;;;;;;;23.73;11.20;;;;;;;3.37;65.02;101161.26;1762101;80;21272;-62
2021/01/21 03:23:50;;;;;;;23.45;11.95;;;;;;;3.38;65.00;101160.83;1775799;80;21143;-62
2021/01/21 03:26:20;;;;;;;21.93;11.43;;;;;;;3.37;65.02;101168.16;1790114;80;21249;-64
2021/01/21 03:28:49;;;;;;;23.55;10.53;;;;;;;3.37;65.01;101162.96;1772595;80;21166;-62
2021/01/21 03:31:17;;;;;;;21.97;10.90;;;;;;;3.40;64.97;101170.86;1786908;80;21300;-65
2021/01/21 03:33:45;;;;;;;26.95;11.57;;;;;;;3.39;64.97;101167.39;1790963;80;21135;-63
2021/01/21 03:36:12;;;;;;;23.38;10.98;;;;;;;3.38;64.99;101167.33;1792132;80;21309;-62
2021/01/21 03:38:40;;;;;;;23.55;11.08;;;;;;;3.36;65.04;101167.30;1772230;80;21137;-62
2021/01/21 03:41:16;;;;;;;25.00;12.25;;;;;;;3.41;64.98;101167.42;1821570;77;22609;-61
2021/01/21 03:43:45;;;;;;;21.97;11.83;;;;;;;3.37;64.99;101171.67;1790550;80;21119;-62
2021/01/21 03:46:20;;;;;;;27.10;12.68;;;;;;;3.40;64.96;101169.56;1793478;79;21274;-66
2021/01/21 03:48:48;;;;;;;29.05;12.80;;;;;;;3.37;65.02;101170.77;1805519;79;21158;-62
2021/01/21 03:51:26;;;;;;;25.77;12.30;;;;;;;3.47;64.91;101175.42;1834017;77;22148;-60
2021/01/21 03:53:56;;;;;;;26.70;12.43;;;;;;;3.45;64.71;101177.53;1794673;80;21111;-63
2021/01/21 03:56:25;;;;;;;28.00;12.37;;;;;;;3.42;64.68;101179.20;1755405;81;21292;-63
2021/01/21 03:58:53;;;;;;;22.27;12.18;;;;;;;3.42;64.67;101173.98;1745980;81;21147;-60
2021/01/21 04:01:21;;;;;;;28.20;12.75;;;;;;;3.41;64.70;101172.63;1761806;81;21186;-64
2021/01/21 04:03:50;;;;;;;24.55;12.25;;;;;;;3.34;64.88;101179.78;1755711;81;21147;-63
2021/01/21 04:06:20;;;;;;;25.35;13.22;;;;;;;3.33;64.88;101187.13;1753619;81;21138;-65
2021/01/21 04:08:48;;;;;;;26.73;12.43;;;;;;;3.32;64.91;101196.66;1731768;83;21150;-62
2021/01/21 04:11:23;;;;;;;23.55;12.30;;;;;;;3.31;64.97;101197.50;1745218;81;21148;-62
2021/01/21 04:13:56;;;;;;;23.18;12.10;;;;;;;3.30;65.01;101200.94;1747375;81;21130;-61
2021/01/21 04:16:24;;;;;;;28.27;13.28;;;;;;;3.31;65.01;101197.50;1749440;81;21147;-65
2021/01/21 04:18:52;;;;;;;23.92;12.65;;;;;;;3.31;65.03;101188.83;1761593;81;21146;-65
2021/01/21 04:21:21;;;;;;;26.47;12.63;;;;;;;3.29;65.01;101180.95;1762010;81;21142;-62
2021/01/21 04:23:54;;;;;;;30.90;14.15;;;;;;;3.31;64.90;101194.03;1743859;81;21127;-64
2021/01/21 04:26:22;;;;;;;24.80;11.75;;;;;;;3.28;64.89;101189.59;1759489;81;21289;-64
2021/01/21 04:28:51;;;;;;;19.42;9.38;;;;;;;3.25;64.93;101189.50;1734838;82;21151;-62
2021/01/21 04:31:20;;;;;;;23.47;12.33;;;;;;;3.27;64.82;101187.42;1737626;81;21329;-64
2021/01/21 04:33:48;;;;;;;27.77;13.03;;;;;;;3.26;64.85;101189.56;1750445;81;21166;-63
2021/01/21 04:36:18;;;;;;;27.20;12.57;;;;;;;3.25;64.86;101189.10;1724040;83;21142;-62
2021/01/21 04:38:46;;;;;;;23.42;12.30;;;;;;;3.24;64.85;101189.03;1726885;81;21261;-64
2021/01/21 04:41:15;;;;;;;30.80;13.20;;;;;;;3.23;64.88;101187.27;1743765;81;21310;-65
2021/01/21 04:43:50;;;;;;;36.53;20.92;;;;;;;3.26;64.85;101190.87;1815702;77;28486;-60
2021/01/21 04:46:20;;;;;;;31.35;16.85;;;;;;;3.22;64.86;101183.80;1769367;80;21164;-62
2021/01/21 04:48:49;;;;;;;28.97;15.40;;;;;;;3.24;64.81;101183.83;1793581;79;21139;-64
2021/01/21 04:51:17;;;;;;;24.02;13.85;;;;;;;3.22;64.85;101182.90;1775093;79;21175;-64
2021/01/21 04:53:48;;;;;;;26.27;13.62;;;;;;;3.18;64.94;101184.53;1783027;79;21146;-64
2021/01/21 04:56:31;;;;;;;28.25;13.93;;;;;;;3.14;64.92;101183.97;1754911;80;21728;-64
2021/01/21 04:59:14;;;;;;;28.55;14.28;;;;;;;3.11;64.98;101182.14;1824268;77;22582;-62
2021/01/21 05:01:43;;;;;;;27.00;15.25;;;;;;;3.03;65.02;101184.95;1745491;81;21261;-62
2021/01/21 05:04:12;;;;;;;24.10;13.28;;;;;;;3.00;65.10;101187.45;1761989;81;21162;-64
2021/01/21 05:06:47;;;;;;;34.78;21.82;;;;;;;3.00;65.13;101183.55;1837479;77;28394;-63
2021/01/21 05:09:17;;;;;;;29.72;16.52;;;;;;;2.94;65.19;101185.95;1792407;78;21111;-63
2021/01/21 05:11:47;;;;;;;28.55;15.55;;;;;;;2.94;65.18;101190.72;1698317;81;21134;-63
2021/01/21 05:14:25;;;;;;;28.25;15.15;;;;;;;2.92;65.19;101192.81;1725261;81;21289;-63
2021/01/21 05:17:06;;;;;;;26.40;15.20;;;;;;;2.87;65.31;101193.95;1734986;81;21108;-63
2021/01/21 05:19:52;;;;;;;27.82;13.65;;;;;;;2.84;65.36;101193.88;1735788;81;21691;-63
2021/01/21 05:22:39;;;;;;;31.27;14.75;;;;;;;2.83;65.67;101183.88;1712622;83;21147;-63
2021/01/21 05:25:29;;;;;;;28.77;15.08;;;;;;;2.83;65.62;101182.58;1734732;81;21288;-64
2021/01/21 05:28:07;;;;;;;28.23;15.18;;;;;;;2.82;65.60;101189.05;1706772;82;21290;-64
2021/01/21 05:30:50;;;;;;;31.23;16.35;;;;;;;2.79;65.55;101196.31;1732024;82;21280;-62
2021/01/21 05:33:21;;;;;;;32.05;16.77;;;;;;;2.75;65.64;101193.57;1738885;82;21182;-63
2021/01/21 05:35:57;;;;;;;26.17;14.13;;;;;;;2.74;65.66;101197.00;1740090;81;21195;-62
2021/01/21 05:38:25;;;;;;;33.53;16.57;;;;;;;2.72;65.74;101207.34;1685957;84;21205;-62
2021/01/21 05:41:11;;;;;;;32.25;15.98;;;;;;;2.71;65.84;101208.59;1737131;81;21205;-67
2021/01/21 05:43:52;;;;;;;28.60;15.10;;;;;;;2.74;65.85;101208.27;1823395;77;22561;-61
2021/01/21 05:46:25;;;;;;;26.05;13.35;;;;;;;2.66;65.89;101205.42;1775331;80;21155;-64
2021/01/21 05:48:53;;;;;;;34.70;15.65;;;;;;;2.66;65.93;101211.02;1772592;80;21114;-64
2021/01/21 05:51:23;;;;;;;31.85;15.55;;;;;;;2.63;65.99;101216.16;1770003;80;21171;-65
2021/01/21 05:53:53;;;;;;;30.65;14.68;;;;;;;2.62;66.16;101221.75;1748139;80;21272;-61
2021/01/21 05:56:38;;;;;;;31.80;15.18;;;;;;;2.65;66.27;101223.16;1816253;77;22132;-63
2021/01/21 05:59:16;;;;;;;;;;;;;;;2.71;65.98;101220.30;1756135;80;21115;-60
2021/01/21 06:01:55;;;;;;;36.17;15.60;;;;;;;2.72;65.91;101213.83;1714179;83;20152;-63
2021/01/21 06:04:30;;;;;;;31.52;16.23;;;;;;;2.66;66.09;101214.52;1671673;84;21222;-63
2021/01/21 06:06:59;;;;;;;33.28;16.02;;;;;;;2.62;66.25;101215.69;1670555;85;21126;-63
2021/01/21 06:09:31;;;;;;;28.57;15.03;;;;;;;2.67;66.16;101216.30;1713068;83;21161;-63
2021/01/21 06:12:01;;;;;;;30.90;16.62;;;;;;;2.64;66.26;101212.72;1717033;82;21161;-63
2021/01/21 06:14:29;;;;;;;34.50;15.45;;;;;;;2.65;66.28;101211.45;1712798;83;21145;-62
2021/01/21 06:16:57;;;;;;;27.58;15.00;;;;;;;2.70;66.27;101218.09;1711856;83;21149;-63
2021/01/21 06:19:25;;;;;;;27.50;15.72;;;;;;;2.78;66.13;101215.77;1702090;84;21172;-63
2021/01/21 06:22:06;;;;;;;27.50;15.28;;;;;;;2.72;66.32;101216.86;1705843;84;21129;-64
2021/01/21 06:24:59;;;;;;;27.80;13.75;;;;;;;2.75;66.46;101213.94;1816655;77;22163;-60
2021/01/21 06:27:27;;;;;;;28.02;14.07;;;;;;;2.76;66.64;101223.50;1778633;80;21151;-62
2021/01/21 06:29:56;;;;;;;22.67;12.88;;;;;;;2.86;66.75;101226.41;1739786;81;21122;-64
2021/01/21 06:32:28;;;;;;;26.15;13.13;;;;;;;2.94;66.77;101229.73;1724394;83;21573;-64
2021/01/21 06:34:56;;;;;;;31.40;14.33;;;;;;;3.03;66.75;101234.77;1679637;85;21199;-63
2021/01/21 06:37:24;;;;;;;31.25;14.68;;;;;;;3.11;66.67;101236.77;1695414;83;21138;-62
2021/01/21 06:40:08;;;;;;;25.65;12.88;;;;;;;3.17;66.55;101230.90;1721354;83;21136;-65
2021/01/21 06:42:36;;;;;;;24.47;12.73;;;;;;;3.25;66.70;101235.03;1719379;83;21264;-61
2021/01/21 06:45:05;;;;;;;28.00;13.48;;;;;;;3.34;66.93;101237.03;1731861;82;21197;-62
2021/01/21 06:47:34;;;;;;;26.57;13.55;;;;;;;3.44;66.79;101246.89;1723160;81;21123;-62
2021/01/21 06:50:05;;;;;;;27.67;13.25;;;;;;;3.49;66.53;101250.97;1728288;83;21654;-62
2021/01/21 06:52:37;;;;;;;26.48;13.30;;;;;;;3.50;66.42;101252.30;1715360;82;21277;-64
2021/01/21 06:55:11;;;;;;;23.95;11.25;;;;;;;3.55;66.28;101253.33;1733266;82;21694;-63
2021/01/21 06:57:42;;;;;;;28.23;12.78;;;;;;;3.57;66.25;101251.66;1740777;82;21142;-61
2021/01/21 07:00:13;;;;;;;34.45;13.30;;;;;;;3.61;66.16;101251.75;1735909;82;21170;-64
2021/01/21 07:02:46;;;;;;;;;;;;;;;3.64;66.03;101257.05;1731499;82;21192;-64
2021/01/21 07:05:22;;;;;;;24.27;11.95;;;;;;;3.64;65.99;101251.41;1739431;82;20189;-64
2021/01/21 07:07:59;;;;;;;25.48;12.07;;;;;;;3.69;66.25;101246.36;1735067;82;21457;-65
2021/01/21 07:10:44;;;;;;;24.37;13.00;;;;;;;3.74;66.21;101247.38;1725261;83;21151;-64
2021/01/21 07:13:22;;;;;;;32.63;14.30;;;;;;;3.77;66.41;101239.63;1731228;82;21624;-61
2021/01/21 07:16:04;;;;;;;25.92;12.10;;;;;;;3.81;66.09;101249.30;1726702;82;21115;-61
2021/01/21 07:18:36;;;;;;;25.55;12.13;;;;;;;3.83;65.97;101246.77;1730314;82;21159;-60
2021/01/21 07:21:07;;;;;;;23.22;11.40;;;;;;;3.84;65.80;101252.00;1742888;82;21184;-60
2021/01/21 07:23:52;;;;;;;20.17;10.10;;;;;;;3.82;65.63;101258.02;1720388;82;21611;-61
2021/01/21 07:26:42;;;;;;;17.15;9.63;;;;;;;3.76;65.63;101248.72;1772283;81;21297;-66
2021/01/21 07:29:20;;;;;;;14.53;9.20;;;;;;;3.72;65.67;101247.32;1777408;80;21159;-66
2021/01/21 07:31:59;;;;;;;14.83;9.03;;;;;;;3.62;65.57;101239.20;1766501;81;21418;-64
2021/01/21 07:34:40;;;;;;;15.80;9.70;;;;;;;3.47;65.71;101233.11;1721841;82;21150;-62
2021/01/21 07:37:30;;;;;;;15.43;9.40;;;;;;;3.31;65.97;101231.33;1768263;79;21563;-63
2021/01/21 07:40:07;;;;;;;21.87;11.05;;;;;;;3.19;66.26;101232.23;1774386;81;21153;-67
2021/01/21 07:42:40;;;;;;;26.90;10.68;;;;;;;3.12;66.51;101233.77;1778907;81;21131;-63
2021/01/21 07:45:19;;;;;;;22.65;10.70;;;;;;;3.19;66.84;101237.03;1778953;80;21120;-63
2021/01/21 07:47:48;;;;;;;16.23;9.10;;;;;;;3.31;66.82;101241.73;1756021;81;21120;-63
2021/01/21 07:50:23;;;;;;;14.65;8.98;;;;;;;3.40;66.53;101243.73;1753517;81;21167;-63
2021/01/21 07:53:00;;;;;;;22.15;9.98;;;;;;;3.43;66.20;101238.62;1748236;82;21159;-63
2021/01/21 07:55:38;;;;;;;16.30;9.48;;;;;;;3.44;66.19;101239.09;1766724;81;21135;-68
2021/01/21 07:58:36;;;;;;;17.92;9.13;;;;;;;3.49;66.14;101237.95;1779126;81;21519;-67
2021/01/21 08:01:08;;;;;;;13.35;8.28;;;;;;;3.53;66.35;101235.91;1748456;81;21338;-68
2021/01/21 08:03:43;;;;;;;17.50;9.53;;;;;;;3.58;66.61;101239.50;1761018;81;21175;-62
2021/01/21 08:06:22;;;;;;;13.32;8.08;;;;;;;3.70;66.36;101237.71;1712467;83;21119;-68
2021/01/21 08:08:52;;;;;;;18.10;9.35;;;;;;;3.85;66.05;101242.05;1735510;82;21130;-63
2021/01/21 08:11:22;;;;;;;18.02;9.68;;;;;;;3.92;65.89;101243.13;1779028;80;21193;-67
2021/01/21 08:13:57;;;;;;;15.00;9.18;;;;;;;4.02;65.70;101241.23;1778823;81;21599;-68
2021/01/21 08:16:24;;;;;;;24.32;12.13;;;;;;;4.06;65.47;101243.92;1778805;81;21167;-63
2021/01/21 08:19:02;;;;;;;32.30;16.30;;;;;;;4.11;65.53;101252.75;1760563;81;21317;-64
2021/01/21 08:21:30;;;;;;;22.75;11.95;;;;;;;4.13;65.46;101255.89;1748307;81;21139;-68
2021/01/21 08:24:00;;;;;;;27.73;17.10;;;;;;;4.10;65.61;101255.80;1747926;81;21167;-63
2021/01/21 08:26:30;;;;;;;27.65;17.57;;;;;;;4.10;65.76;101268.83;1753289;81;21080;-67
2021/01/21 08:28:58;;;;;;;26.55;16.82;;;;;;;4.09;66.04;101259.24;1766864;81;21643;-64
2021/01/21 08:31:38;;;;;;;36.35;20.65;;;;;;;4.15;66.07;101267.64;1748306;82;21143;-66
2021/01/21 08:34:08;;;;;;;31.68;19.27;;;;;;;4.18;66.07;101271.64;1748139;82;21187;-65
2021/01/21 08:36:35;;;;;;;31.63;19.13;;;;;;;4.20;66.07;101268.66;1749735;81;21163;-65
2021/01/21 08:39:03;;;;;;;30.25;18.80;;;;;;;4.23;65.91;101276.56;1778558;81;21121;-65
2021/01/21 08:41:31;;;;;;;34.60;19.98;;;;;;;4.24;66.05;101262.69;1777391;81;21123;-66
2021/01/21 08:44:00;;;;;;;38.60;22.40;;;;;;;4.35;66.23;101268.20;1779032;80;21155;-65
2021/01/21 08:46:28;;;;;;;29.90;18.00;;;;;;;4.48;66.10;101265.93;1764489;81;21147;-64
2021/01/21 08:49:09;;;;;;;29.25;18.60;;;;;;;4.59;66.03;101264.50;1748060;82;21218;-69
2021/01/21 08:51:41;;;;;;;28.40;17.40;;;;;;;4.72;65.91;101262.66;1739135;82;21654;-65
2021/01/21 08:54:20;;;;;;;29.27;17.15;;;;;;;4.86;65.71;101260.39;1748041;82;21179;-67
2021/01/21 08:57:09;;;;;;;25.68;16.40;;;;;;;4.94;65.38;101261.91;1762204;81;21127;-66
2021/01/21 08:59:39;;;;;;;22.13;13.55;;;;;;;4.99;65.45;101258.09;1771294;81;21123;-66
2021/01/21 09:02:07;;;;;;;22.25;14.03;;;;;;;5.10;65.05;101258.35;1768095;81;21132;-65
2021/01/21 09:04:36;;;;;;;21.48;14.18;;;;;;;5.13;64.59;101254.52;1779109;81;21580;-66
2021/01/21 09:07:07;;;;;;;21.37;12.88;;;;;;;5.13;64.21;101257.13;1779210;81;21172;-65
2021/01/21 09:09:37;;;;;;;22.07;13.95;;;;;;;5.15;64.15;101247.20;1778939;81;21157;-66
2021/01/21 09:12:19;;;;;;;;;;;;;;;5.24;64.31;101247.84;1771717;80;21128;-67
2021/01/21 09:15:08;;;;;;;19.80;12.13;;;;;;;5.28;64.17;101252.28;1776356;81;20136;-66
2021/01/21 09:17:38;;;;;;;;;;;;;;;5.34;63.80;101248.52;1750997;82;21156;-67
2021/01/21 09:20:24;;;;;;;18.67;12.00;;;;;;;5.34;63.91;101251.53;1756030;81;20161;-66
2021/01/21 09:22:54;;;;;;;18.67;12.28;;;;;;;5.36;63.51;101245.52;1777128;81;21108;-66
2021/01/21 09:25:24;;;;;;;18.02;12.20;;;;;;;5.51;63.36;101239.76;1782532;80;21103;-67
2021/01/21 09:27:53;;;;;;;21.37;12.10;;;;;;;5.55;63.07;101238.08;1703482;83;21284;-67
2021/01/21 09:30:22;;;;;;;19.90;12.47;;;;;;;5.59;62.52;101230.77;1723338;82;21199;-67
2021/01/21 09:32:50;;;;;;;19.92;12.55;;;;;;;5.60;62.38;101227.75;1683566;84;21178;-66
2021/01/21 09:35:22;;;;;;;17.45;11.85;;;;;;;5.61;62.48;101218.63;1707197;83;21212;-65
2021/01/21 09:37:55;;;;;;;18.27;12.70;;;;;;;5.61;61.68;101218.63;1707189;84;21128;-66
2021/01/21 09:40:24;;;;;;;19.32;12.95;;;;;;;5.61;61.65;101208.62;1717546;83;21136;-65
2021/01/21 09:42:53;;;;;;;19.15;12.53;;;;;;;5.62;61.69;101203.42;1709885;83;21155;-67
2021/01/21 09:45:20;;;;;;;17.40;12.43;;;;;;;5.64;61.55;101205.64;1723871;83;21222;-65
2021/01/21 09:47:52;;;;;;;19.50;11.97;;;;;;;5.68;61.18;101203.09;1733781;82;21119;-64
2021/01/21 09:50:21;;;;;;;20.00;13.80;;;;;;;5.73;61.08;101198.86;1730872;82;21304;-67
2021/01/21 09:52:49;;;;;;;19.80;12.78;;;;;;;5.80;61.40;101199.45;1725516;83;21724;-68
2021/01/21 09:55:16;;;;;;;17.98;13.15;;;;;;;5.89;61.18;101197.02;1736422;83;21286;-67
2021/01/21 09:57:44;;;;;;;19.50;13.10;;;;;;;5.95;60.84;101193.64;1724667;83;21550;-68
2021/01/21 10:00:14;;;;;;;15.65;11.15;;;;;;;6.03;60.91;101182.95;1707078;84;21148;-63
2021/01/21 10:02:41;;;;;;;22.82;14.00;;;;;;;6.11;60.01;101179.17;1709589;83;21147;-68
2021/01/21 10:05:13;;;;;;;17.82;12.37;;;;;;;6.15;59.81;101176.20;1709405;83;21216;-67
2021/01/21 10:07:41;;;;;;;21.65;14.63;;;;;;;6.17;59.72;101182.34;1707479;84;21306;-64
2021/01/21 10:10:09;;;;;;;22.45;14.55;;;;;;;6.23;59.40;101175.48;1709864;83;21148;-64
2021/01/21 10:13:10;;;;;;;24.05;16.30;;;;;;;6.25;59.02;101177.70;1711841;83;21124;-70
2021/01/21 10:15:38;;;;;;;25.68;15.58;;;;;;;6.20;58.59;101174.11;1655818;86;21645;-70
2021/01/21 10:18:06;;;;;;;21.20;13.35;;;;;;;6.24;59.23;101169.81;1660903;84;21202;-71
2021/01/21 10:20:35;;;;;;;20.37;14.65;;;;;;;6.29;58.96;101166.86;1650007;87;21331;-72
2021/01/21 10:23:06;;;;;;;24.02;15.30;;;;;;;6.33;58.76;101161.27;1645242;87;21173;-71
2021/01/21 10:25:48;;;;;;;22.40;15.10;;;;;;;6.36;58.33;101158.72;1693754;83;21197;-64
2021/01/21 10:28:17;;;;;;;20.52;14.35;;;;;;;6.40;58.50;101154.00;1686514;83;21190;-71
2021/01/21 10:30:44;;;;;;;23.75;14.03;;;;;;;6.44;57.94;101145.77;1670241;85;21193;-71
2021/01/21 10:33:12;;;;;;;23.80;15.88;;;;;;;6.49;57.92;101142.36;1670357;85;21179;-70
2021/01/21 10:35:39;;;;;;;22.20;14.80;;;;;;;6.48;57.62;101132.75;1682740;83;21201;-71
2021/01/21 10:38:07;;;;;;;25.68;15.85;;;;;;;6.49;57.38;101127.11;1711135;83;21683;-64
2021/01/21 10:40:34;;;;;;;22.80;14.65;;;;;;;6.50;57.35;101125.81;1684421;84;21180;-63
2021/01/21 10:43:02;;;;;;;23.00;16.17;;;;;;;6.55;57.66;101120.67;1704094;84;21580;-71
2021/01/21 10:45:30;;;;;;;20.55;14.25;;;;;;;6.63;58.64;101120.34;1711668;83;21346;-63
2021/01/21 10:47:58;;;;;;;26.50;16.32;;;;;;;6.73;57.51;101117.47;1714639;83;21288;-63
2021/01/21 10:50:26;;;;;;;23.87;16.55;;;;;;;6.78;57.06;101116.22;1680118;85;21320;-71
2021/01/21 10:52:53;;;;;;;22.00;15.78;;;;;;;6.78;56.49;101110.98;1678908;85;21178;-63
2021/01/21 10:55:22;;;;;;;25.68;16.55;;;;;;;6.79;56.66;101112.75;1691747;84;21573;-71
2021/01/21 10:57:51;;;;;;;26.62;17.12;;;;;;;6.81;56.69;101108.01;1715008;83;21130;-71
2021/01/21 11:00:20;;;;;;;23.87;17.12;;;;;;;6.85;56.60;101101.93;1704854;84;21336;-71
2021/01/21 11:02:48;;;;;;;25.27;17.02;;;;;;;6.95;56.69;101095.52;1695338;84;21174;-70
2021/01/21 11:05:16;;;;;;;26.12;17.52;;;;;;;7.01;56.64;101091.69;1697547;83;21153;-62
2021/01/21 11:07:44;;;;;;;25.52;16.70;;;;;;;7.03;56.86;101090.42;1706950;83;21496;-63
2021/01/21 11:10:13;;;;;;;23.77;16.23;;;;;;;7.09;56.82;101089.17;1670740;84;21186;-68
2021/01/21 11:12:47;;;;;;;26.57;16.50;;;;;;;7.16;56.69;101086.22;1708490;83;21139;-63
2021/01/21 11:15:16;;;;;;;24.65;17.57;;;;;;;7.22;56.87;101085.00;1696734;83;21279;-69
2021/01/21 11:17:45;;;;;;;26.00;16.20;;;;;;;7.27;56.62;101088.11;1668846;84;21139;-69
2021/01/21 11:20:17;;;;;;;27.62;17.65;;;;;;;7.34;56.84;101073.34;1686973;85;21212;-69
2021/01/21 11:22:44;;;;;;;24.77;17.35;;;;;;;7.40;56.89;101080.41;1687327;84;21163;-69
2021/01/21 11:25:13;;;;;;;31.00;19.20;;;;;;;7.43;57.04;101070.84;1706622;83;21268;-69
2021/01/21 11:27:42;;;;;;;28.35;19.75;;;;;;;7.47;56.90;101072.19;1725524;82;21174;-63
2021/01/21 11:30:12;;;;;;;25.82;18.12;;;;;;;7.42;56.77;101068.22;1715863;82;21154;-68
2021/01/21 11:32:40;;;;;;;25.27;17.42;;;;;;;7.36;56.66;101061.15;1706279;84;21186;-63
2021/01/21 11:35:08;;;;;;;28.57;18.15;;;;;;;7.37;56.95;101065.97;1710522;82;21590;-62
2021/01/21 11:37:37;;;;;;;26.87;17.67;;;;;;;7.37;56.85;101064.22;1711948;82;21280;-67
2021/01/21 11:40:06;;;;;;;29.42;19.37;;;;;;;7.34;56.59;101053.70;1709593;83;21538;-68
2021/01/21 11:42:34;;;;;;;30.40;20.72;;;;;;;7.33;56.80;101055.88;1709113;83;21284;-68
2021/01/21 11:45:05;;;;;;;27.80;20.52;;;;;;;7.33;56.75;101055.01;1706174;83;21174;-68